Time;durP1;ratioP1;P1;durP2;ratioP2;P2;SDS_P1;SDS_P2;PMS_P1;PMS_P2;Temp;Humidity;BMP_temperature;BMP_pressure;BME280_temperature;BME280_humidity;BME280_pressure;Samples;Min_cycle;Max_cycle;Signal;HPM_P1;HPM_P2
2021/01/21 00:01:08;;;;;;;2.27;1.90;;;12.30;45.20;;;;;;5038764;28;21025;-58
2021/01/21 00:03:35;;;;;;;2.20;1.60;;;12.30;44.80;;;;;;5053322;28;20704;-58
2021/01/21 00:06:03;;;;;;;1.57;1.47;;;12.30;44.70;;;;;;5035461;28;20651;-58
2021/01/21 00:08:29;;;;;;;2.07;1.70;;;12.20;44.80;;;;;;5041396;28;20669;-58
2021/01/21 00:10:56;;;;;;;2.00;1.90;;;12.30;44.80;;;;;;5036059;28;20619;-58
2021/01/21 00:13:23;;;;;;;2.00;1.37;;;12.30;44.80;;;;;;5033921;28;20722;-57
2021/01/21 00:15:49;;;;;;;1.60;1.50;;;12.20;44.80;;;;;;5033718;28;20655;-58
2021/01/21 00:18:17;;;;;;;2.63;1.73;;;12.20;44.70;;;;;;5036358;28;20622;-57
2021/01/21 00:20:44;;;;;;;1.60;1.50;;;12.10;44.90;;;;;;5053532;28;20669;-57
2021/01/21 00:23:11;;;;;;;1.50;1.40;;;12.10;44.90;;;;;;5053413;28;20654;-57
2021/01/21 00:25:37;;;;;;;2.60;1.67;;;12.10;45.00;;;;;;5053110;28;21215;-57
2021/01/21 00:28:05;;;;;;;3.60;3.30;;;12.00;45.10;;;;;;5052989;28;20657;-58
2021/01/21 00:30:31;;;;;;;2.43;1.97;;;12.10;45.20;;;;;;5043904;28;20654;-57
2021/01/21 00:32:58;;;;;;;5.87;1.80;;;12.00;45.50;;;;;;5035904;28;20695;-57
2021/01/21 00:35:26;;;;;;;2.33;1.40;;;12.00;45.10;;;;;;5032870;28;21022;-57
2021/01/21 00:37:52;;;;;;;2.80;1.80;;;12.00;45.20;;;;;;5036442;28;20623;-59
2021/01/21 00:40:19;;;;;;;4.13;1.53;;;12.00;45.70;;;;;;5049038;28;20665;-58
2021/01/21 00:42:46;;;;;;;2.50;1.83;;;11.90;45.40;;;;;;5052674;28;20689;-59
2021/01/21 00:45:13;;;;;;;4.53;4.13;;;11.90;45.60;;;;;;5051829;28;21055;-56
2021/01/21 00:47:40;;;;;;;4.43;1.87;;;11.90;45.80;;;;;;5051775;28;20669;-56
2021/01/21 00:50:07;;;;;;;4.37;2.00;;;11.80;45.80;;;;;;5050882;28;20737;-56
2021/01/21 00:52:35;;;;;;;3.00;2.07;;;11.80;46.10;;;;;;5052584;28;20705;-55
2021/01/21 00:55:02;;;;;;;2.20;2.00;;;11.70;46.10;;;;;;5052782;28;20661;-57
2021/01/21 00:57:28;;;;;;;2.37;1.97;;;11.70;46.30;;;;;;5046873;28;20640;-59
2021/01/21 00:59:55;;;;;;;2.20;2.00;;;11.70;46.40;;;;;;5030358;28;20687;-58
2021/01/21 01:02:22;;;;;;;2.83;2.10;;;11.70;46.30;;;;;;5032469;28;20650;-57
2021/01/21 01:04:49;;;;;;;2.27;2.07;;;11.80;46.40;;;;;;5032459;28;20684;-58
2021/01/21 01:07:15;;;;;;;2.30;1.83;;;11.70;46.40;;;;;;5014466;28;20709;-57
2021/01/21 01:09:43;;;;;;;2.53;2.07;;;11.70;46.30;;;;;;5039408;28;20666;-59
2021/01/21 01:12:10;;;;;;;2.37;1.67;;;11.60;46.50;;;;;;5051996;28;20681;-59
2021/01/21 01:14:36;;;;;;;2.47;1.80;;;11.70;46.50;;;;;;5045330;28;20681;-59
2021/01/21 01:17:03;;;;;;;3.77;1.50;;;11.60;46.50;;;;;;5051960;28;21025;-59
2021/01/21 01:19:30;;;;;;;2.03;1.87;;;11.60;46.90;;;;;;5051781;28;20629;-58
2021/01/21 01:21:57;;;;;;;2.40;2.13;;;11.50;46.60;;;;;;5038167;28;20663;-58
2021/01/21 01:24:23;;;;;;;3.03;2.03;;;11.50;46.90;;;;;;5032638;28;21019;-58
2021/01/21 01:26:51;;;;;;;3.90;1.40;;;11.50;46.90;;;;;;5031877;28;20665;-57
2021/01/21 01:29:19;;;;;;;2.00;1.70;;;11.50;46.80;;;;;;5031788;28;20650;-57
2021/01/21 01:31:45;;;;;;;1.93;1.77;;;11.50;47.20;;;;;;5039616;28;20646;-59
2021/01/21 01:34:12;;;;;;;1.20;1.10;;;11.60;46.70;;;;;;5038344;28;21088;-59
2021/01/21 01:36:39;;;;;;;2.23;1.60;;;11.60;46.70;;;;;;5049892;28;20652;-59
2021/01/21 01:39:06;;;;;;;1.50;1.40;;;11.60;46.60;;;;;;5037356;28;20654;-59
2021/01/21 01:41:32;;;;;;;1.73;1.63;;;11.50;46.80;;;;;;5033581;28;20622;-58
2021/01/21 01:44:00;;;;;;;2.33;1.50;;;11.60;46.60;;;;;;5033548;28;20650;-59
2021/01/21 01:46:27;;;;;;;3.97;1.80;;;11.70;46.50;;;;;;5051284;28;20688;-59
2021/01/21 01:48:56;;;;;;;1.33;1.03;;;11.70;46.30;;;;;;5050716;28;21038;-59
2021/01/21 01:51:23;;;;;;;2.40;1.60;;;11.70;46.80;;;;;;5051393;28;20646;-59
2021/01/21 01:53:50;;;;;;;2.37;2.07;;;11.70;46.60;;;;;;5050786;28;21074;-57
2021/01/21 01:56:17;;;;;;;2.07;1.40;;;11.70;46.40;;;;;;5051021;28;20662;-58
2021/01/21 01:58:44;;;;;;;1.63;1.50;;;11.80;46.10;;;;;;5051124;28;20654;-57
2021/01/21 02:01:11;;;;;;;5.20;2.90;;;11.80;46.20;;;;;;5033528;28;20749;-59
2021/01/21 02:03:38;;;;;;;2.07;1.37;;;11.80;46.20;;;;;;5036975;28;21316;-59
2021/01/21 02:06:05;;;;;;;2.13;1.90;;;11.80;45.90;;;;;;5031382;28;20647;-57
2021/01/21 02:08:32;;;;;;;2.47;1.17;;;11.90;45.70;;;;;;5033349;28;20677;-57
2021/01/21 02:11:03;;;;;;;0.87;0.87;;;11.90;45.70;;;;;;5050686;28;21271;-58
2021/01/21 02:13:36;;;;;;;1.30;1.00;;;11.90;45.60;;;;;;5050299;28;20702;-59
2021/01/21 02:16:18;;;;;;;1.40;1.30;;;11.90;45.40;;;;;;5049131;28;20661;-58
2021/01/21 02:18:48;;;;;;;2.40;1.97;;;11.90;45.40;;;;;;5031577;28;20661;-59
2021/01/21 02:21:40;;;;;;;2.33;1.63;;;11.90;45.00;;;;;;5051113;28;20702;-58
2021/01/21 02:24:45;;;;;;;1.23;1.13;;;12.00;45.00;;;;;;5050705;28;21005;-57
2021/01/21 02:27:12;;;;;;;2.30;1.47;;;12.00;45.10;;;;;;5030826;28;20703;-57
2021/01/21 02:29:39;;;;;;;1.60;1.23;;;12.00;45.00;;;;;;5050560;28;20618;-58
2021/01/21 02:32:37;;;;;;;2.10;1.13;;;12.00;44.80;;;;;;5031274;28;20714;-58
2021/01/21 02:35:08;;;;;;;2.40;1.83;;;12.00;44.70;;;;;;5014621;28;20658;-56
2021/01/21 02:37:36;;;;;;;1.27;1.10;;;12.10;44.40;;;;;;5032275;28;20626;-58
2021/01/21 02:40:05;;;;;;;2.13;1.50;;;12.00;44.50;;;;;;5036436;28;20622;-57
2021/01/21 02:42:42;;;;;;;1.43;0.97;;;12.00;44.70;;;;;;5050194;28;20659;-58
2021/01/21 02:45:10;;;;;;;2.20;1.67;;;12.00;44.20;;;;;;5038624;28;21208;-59
2021/01/21 02:47:37;;;;;;;7.97;3.13;;;12.00;44.10;;;;;;5030763;28;20651;-58
2021/01/21 02:50:06;;;;;;;1.80;1.10;;;12.10;44.10;;;;;;5031297;28;20677;-58
2021/01/21 02:52:36;;;;;;;1.53;1.27;;;12.00;43.90;;;;;;5030537;28;21035;-59
2021/01/21 02:55:08;;;;;;;3.33;1.57;;;12.00;43.70;;;;;;5030771;28;20662;-59
2021/01/21 02:57:49;;;;;;;1.60;1.40;;;12.00;43.80;;;;;;5013620;28;20635;-59
2021/01/21 03:00:17;;;;;;;1.20;1.07;;;12.00;44.00;;;;;;5051116;28;21005;-58
2021/01/21 03:02:44;;;;;;;2.87;1.47;;;12.00;43.90;;;;;;5050404;28;20795;-58
2021/01/21 03:05:14;;;;;;;1.60;1.40;;;12.00;44.50;;;;;;5050392;28;20665;-57
2021/01/21 03:07:41;;;;;;;1.10;1.00;;;11.90;44.00;;;;;;5041143;28;20674;-58
2021/01/21 03:10:09;;;;;;;1.70;1.33;;;11.90;44.00;;;;;;5037534;28;20723;-57
2021/01/21 03:12:35;;;;;;;3.37;1.13;;;11.90;44.20;;;;;;5035244;28;20666;-58
2021/01/21 03:15:04;;;;;;;2.30;1.53;;;11.90;44.20;;;;;;5040372;28;20665;-57
2021/01/21 03:17:31;;;;;;;1.83;0.93;;;11.80;44.20;;;;;;5050776;28;20669;-58
2021/01/21 03:19:57;;;;;;;1.30;1.20;;;11.80;44.40;;;;;;5050594;28;20662;-58
2021/01/21 03:22:25;;;;;;;1.60;1.50;;;11.80;44.60;;;;;;5050684;28;20776;-59
2021/01/21 03:24:52;;;;;;;2.53;1.60;;;11.80;44.70;;;;;;5050310;28;20983;-58
2021/01/21 03:27:18;;;;;;;1.00;0.90;;;11.80;44.90;;;;;;5049910;28;20670;-57
2021/01/21 03:29:45;;;;;;;2.00;1.53;;;11.70;44.90;;;;;;5050498;28;20729;-59
2021/01/21 03:32:12;;;;;;;4.67;1.80;;;11.70;45.30;;;;;;5053962;28;20654;-59
2021/01/21 03:34:39;;;;;;;1.50;0.97;;;11.70;45.00;;;;;;5053690;28;20653;-59
2021/01/21 03:37:05;;;;;;;2.80;1.40;;;11.70;44.70;;;;;;5053794;28;20870;-60
2021/01/21 03:39:33;;;;;;;1.80;1.40;;;11.70;45.20;;;;;;5053229;28;20615;-60
2021/01/21 03:42:00;;;;;;;3.23;1.40;;;11.60;44.90;;;;;;5053600;28;21178;-58
2021/01/21 03:44:27;;;;;;;2.40;1.63;;;11.70;44.70;;;;;;5046744;28;21210;-58
2021/01/21 03:46:53;;;;;;;1.07;1.03;;;11.70;45.30;;;;;;5033137;28;20681;-56
2021/01/21 03:49:20;;;;;;;1.73;1.20;;;11.70;44.80;;;;;;5049331;28;20660;-58
2021/01/21 03:51:47;;;;;;;1.80;1.30;;;11.80;44.80;;;;;;5053338;28;20664;-57
2021/01/21 03:54:14;;;;;;;1.73;1.63;;;11.80;44.80;;;;;;5053312;28;20689;-56
2021/01/21 03:56:41;;;;;;;1.73;1.40;;;11.80;45.20;;;;;;5051597;28;20652;-56
2021/01/21 03:59:08;;;;;;;1.43;1.33;;;11.90;44.80;;;;;;5053214;28;20650;-57
2021/01/21 04:01:35;;;;;;;1.40;1.30;;;11.90;44.70;;;;;;5053565;28;20661;-58
2021/01/21 04:04:01;;;;;;;2.63;2.33;;;11.90;44.90;;;;;;5053135;28;20641;-57
2021/01/21 04:06:28;;;;;;;1.50;1.37;;;11.90;44.60;;;;;;5053500;28;21170;-58
2021/01/21 04:08:55;;;;;;;3.57;2.20;;;12.00;44.50;;;;;;5053496;28;20658;-58
2021/01/21 04:11:22;;;;;;;1.20;1.10;;;12.00;45.00;;;;;;5051288;28;20665;-58
2021/01/21 04:13:49;;;;;;;3.73;1.63;;;12.00;44.80;;;;;;5053138;28;20701;-57
2021/01/21 04:16:16;;;;;;;2.50;1.37;;;12.00;44.80;;;;;;5054056;28;20694;-58
2021/01/21 04:18:43;;;;;;;1.37;1.27;;;12.00;44.40;;;;;;5052958;28;20621;-57
2021/01/21 04:21:09;;;;;;;2.67;1.77;;;12.10;44.60;;;;;;5053311;28;20664;-58
2021/01/21 04:23:36;;;;;;;1.17;1.07;;;12.10;44.50;;;;;;5052002;28;20653;-58
2021/01/21 04:26:03;;;;;;;2.53;1.57;;;12.10;44.40;;;;;;5033974;28;20684;-57
2021/01/21 04:28:30;;;;;;;2.03;1.73;;;12.20;44.80;;;;;;5033524;28;21003;-57
2021/01/21 04:30:57;;;;;;;1.73;1.10;;;12.20;44.70;;;;;;5033294;28;20634;-56
2021/01/21 04:33:24;;;;;;;1.27;1.00;;;12.20;44.30;;;;;;5067309;22;20711;-51
2021/01/21 04:35:51;;;;;;;2.00;1.10;;;12.20;44.40;;;;;;5071152;28;20977;-46
2021/01/21 04:38:18;;;;;;;1.70;1.13;;;12.20;44.20;;;;;;5077657;28;20648;-47
2021/01/21 04:40:44;;;;;;;1.70;1.60;;;12.30;44.40;;;;;;5087677;28;20710;-48
2021/01/21 04:43:12;;;;;;;2.30;1.70;;;12.20;45.00;;;;;;5070005;28;20843;-50
2021/01/21 04:45:39;;;;;;;1.60;1.50;;;12.20;44.70;;;;;;5071061;28;20629;-50
2021/01/21 04:48:08;;;;;;;1.40;1.30;;;12.20;44.90;;;;;;5070663;28;20648;-49
2021/01/21 04:50:34;;;;;;;1.53;1.40;;;12.10;44.70;;;;;;5070886;28;20628;-50
2021/01/21 04:53:01;;;;;;;7.53;2.80;;;12.10;44.70;;;;;;5084634;28;20729;-48
2021/01/21 04:55:30;;;;;;;2.07;1.47;;;12.10;44.70;;;;;;5089358;28;21136;-47
2021/01/21 04:58:00;;;;;;;2.53;1.63;;;12.10;44.80;;;;;;5090691;28;20652;-48
2021/01/21 05:00:27;;;;;;;2.43;1.77;;;12.10;45.00;;;;;;5088671;28;20678;-46
2021/01/21 05:02:54;;;;;;;5.00;2.40;;;12.00;44.90;;;;;;5070454;28;20624;-47
2021/01/21 05:05:22;;;;;;;3.63;2.20;;;12.00;45.30;;;;;;5078600;28;20670;-48
2021/01/21 05:07:48;;;;;;;1.73;1.50;;;12.00;45.10;;;;;;5073350;28;21018;-47
2021/01/21 05:10:16;;;;;;;1.30;1.20;;;11.90;45.30;;;;;;5073497;28;20668;-48
2021/01/21 05:12:43;;;;;;;1.73;1.43;;;11.90;45.40;;;;;;5081132;28;21032;-48
2021/01/21 05:15:10;;;;;;;1.83;1.50;;;11.90;45.80;;;;;;5082824;28;20660;-48
2021/01/21 05:17:37;;;;;;;1.83;1.30;;;11.90;45.70;;;;;;5084119;28;20648;-51
2021/01/21 05:20:05;;;;;;;2.10;1.57;;;11.90;45.70;;;;;;5081321;28;20696;-48
2021/01/21 05:22:33;;;;;;;1.70;1.50;;;11.90;45.70;;;;;;5082265;28;20625;-48
2021/01/21 05:25:01;;;;;;;3.60;2.00;;;11.80;45.80;;;;;;5070974;28;21029;-49
2021/01/21 05:27:27;;;;;;;2.90;1.60;;;11.80;45.70;;;;;;5080848;28;20628;-49
2021/01/21 05:29:54;;;;;;;1.80;1.60;;;11.80;45.90;;;;;;5090253;28;21177;-47
2021/01/21 05:32:21;;;;;;;1.90;1.67;;;11.80;46.00;;;;;;5090425;28;20652;-49
2021/01/21 05:34:48;;;;;;;1.33;1.17;;;11.70;46.10;;;;;;5089701;28;20672;-48
2021/01/21 05:37:15;;;;;;;2.20;1.30;;;11.80;46.50;;;;;;5090032;28;20664;-49
2021/01/21 05:39:43;;;;;;;8.07;1.90;;;11.80;46.90;;;;;;5088770;28;21012;-49
2021/01/21 05:42:10;;;;;;;2.93;1.77;;;11.80;46.40;;;;;;5087518;28;20624;-49
2021/01/21 05:44:37;;;;;;;1.90;1.80;;;11.80;46.60;;;;;;5069635;28;20673;-48
2021/01/21 05:47:04;;;;;;;1.90;1.80;;;11.80;46.60;;;;;;5069474;28;20660;-49
2021/01/21 05:49:31;;;;;;;1.57;1.47;;;11.80;46.60;;;;;;5069706;28;20665;-49
2021/01/21 05:51:59;;;;;;;2.80;1.40;;;11.80;47.70;;;;;;5069676;28;20625;-49
2021/01/21 05:54:27;;;;;;;3.20;1.80;;;11.80;46.80;;;;;;5069255;28;20790;-48
2021/01/21 05:56:55;;;;;;;2.50;1.43;;;11.80;47.20;;;;;;5072059;28;20652;-48
2021/01/21 05:59:22;;;;;;;4.70;1.50;;;11.80;47.20;;;;;;5089434;28;20727;-49
2021/01/21 06:01:49;;;;;;;4.63;1.70;;;11.70;47.10;;;;;;5089973;28;20628;-48
2021/01/21 06:04:15;;;;;;;3.20;2.27;;;11.70;47.30;;;;;;5088455;28;20660;-48
2021/01/21 06:06:42;;;;;;;4.00;2.27;;;11.70;47.20;;;;;;5089421;28;20628;-49
2021/01/21 06:09:15;;;;;;;1.67;1.37;;;11.70;47.30;;;;;;5086881;28;20650;-48
2021/01/21 06:11:42;;;;;;;5.60;1.50;;;11.70;47.60;;;;;;5089709;28;20655;-49
2021/01/21 06:14:11;;;;;;;1.40;1.10;;;11.70;47.60;;;;;;5089019;28;20696;-49
2021/01/21 06:16:38;;;;;;;2.87;1.40;;;11.70;47.60;;;;;;5089215;28;21276;-49
2021/01/21 06:19:04;;;;;;;2.97;1.40;;;11.60;47.80;;;;;;5087564;28;20709;-49
2021/01/21 06:21:34;;;;;;;5.90;1.90;;;11.60;47.90;;;;;;5088792;28;21132;-48
2021/01/21 06:24:02;;;;;;;2.10;1.47;;;11.60;47.60;;;;;;5089566;28;20656;-48
2021/01/21 06:26:34;;;;;;;2.03;1.93;;;11.60;47.80;;;;;;5089875;28;20701;-49
2021/01/21 06:29:00;;;;;;;6.07;1.70;;;11.60;47.80;;;;;;5090042;28;20906;-49
2021/01/21 06:31:34;;;;;;;3.00;1.50;;;11.60;47.80;;;;;;5092245;28;20628;-49
2021/01/21 06:34:01;;;;;;;1.77;1.60;;;11.60;47.90;;;;;;5089416;28;20704;-50
2021/01/21 06:36:28;;;;;;;2.30;2.00;;;11.60;48.10;;;;;;5089829;28;20758;-51
2021/01/21 06:38:56;;;;;;;2.10;1.87;;;11.60;48.10;;;;;;5089592;28;20697;-49
2021/01/21 06:41:23;;;;;;;3.40;1.53;;;11.60;48.80;;;;;;5089840;28;21262;-49
2021/01/21 06:43:50;;;;;;;2.80;1.20;;;11.60;48.70;;;;;;5089403;28;20988;-50
2021/01/21 06:46:17;;;;;;;2.10;1.53;;;11.70;48.70;;;;;;5087366;28;20624;-50
2021/01/21 06:48:47;;;;;;;1.80;1.30;;;11.70;48.80;;;;;;5089539;28;20624;-50
2021/01/21 06:51:14;;;;;;;2.43;2.03;;;11.70;48.90;;;;;;5088090;28;21003;-49
2021/01/21 06:53:43;;;;;;;5.43;1.73;;;11.70;48.80;;;;;;5089091;28;21113;-49
2021/01/21 06:56:09;;;;;;;1.40;1.30;;;11.70;48.70;;;;;;5089535;28;20669;-49
2021/01/21 06:58:46;;;;;;;7.53;1.70;;;11.60;48.70;;;;;;5089545;28;20672;-48
2021/01/21 07:01:47;;;;;;;3.80;2.33;;;11.60;49.30;;;;;;5087026;28;20632;-49
2021/01/21 07:04:27;;;;;;;2.80;1.50;;;11.60;48.60;;;;;;5046040;28;20666;-49
2021/01/21 07:07:03;;;;;;;2.70;1.80;;;11.60;48.70;;;;;;5049346;28;20669;-50
2021/01/21 07:09:30;;;;;;;3.30;1.77;;;11.60;49.60;;;;;;5075583;28;20776;-49
2021/01/21 07:11:57;;;;;;;1.37;1.23;;;11.60;49.90;;;;;;5091954;28;20720;-49
2021/01/21 07:14:26;;;;;;;3.57;1.70;;;11.60;49.00;;;;;;5092797;28;20692;-48
2021/01/21 07:16:54;;;;;;;4.97;1.77;;;11.60;49.20;;;;;;5093105;28;20652;-50
2021/01/21 07:19:29;;;;;;;2.70;1.40;;;11.60;48.90;;;;;;5092796;28;20644;-48
2021/01/21 07:21:56;;;;;;;3.20;1.60;;;11.60;49.20;;;;;;5108448;28;20635;-48
2021/01/21 07:24:23;;;;;;;3.40;1.80;;;11.60;49.20;;;;;;5092765;28;20640;-48
2021/01/21 07:26:50;;;;;;;1.57;1.40;;;11.60;49.30;;;;;;5093128;28;20628;-48
2021/01/21 07:29:19;;;;;;;1.73;1.53;;;11.60;49.40;;;;;;5091031;28;20620;-47
2021/01/21 07:32:08;;;;;;;1.70;1.30;;;11.60;49.90;;;;;;5092680;28;20677;-47
2021/01/21 07:34:40;;;;;;;2.67;1.33;;;11.60;49.90;;;;;;5090896;28;20663;-49
2021/01/21 07:37:23;;;;;;;2.03;1.30;;;11.70;50.20;;;;;;5092526;28;20993;-49
2021/01/21 07:40:02;;;;;;;4.07;1.70;;;11.70;50.10;;;;;;5091719;28;20697;-48
2021/01/21 07:42:51;;;;;;;1.23;1.13;;;11.70;50.30;;;;;;5092940;28;20622;-49
2021/01/21 07:45:27;;;;;;;1.30;1.20;;;11.70;50.60;;;;;;5092582;28;21183;-48
2021/01/21 07:47:56;;;;;;;2.20;1.73;;;11.70;51.10;;;;;;5092887;28;20768;-47
2021/01/21 07:50:33;;;;;;;1.90;1.30;;;11.70;51.40;;;;;;5092693;28;20688;-48
2021/01/21 07:53:05;;;;;;;1.47;1.20;;;11.80;51.80;;;;;;5092527;28;20660;-48
2021/01/21 07:55:33;;;;;;;1.27;1.17;;;11.80;52.00;;;;;;5092641;28;21120;-48
2021/01/21 07:58:18;;;;;;;2.13;1.13;;;11.80;52.20;;;;;;5092276;28;20674;-48
2021/01/21 08:00:46;;;;;;;1.77;1.43;;;11.90;52.90;;;;;;5092079;28;20615;-48
2021/01/21 08:03:13;;;;;;;2.60;1.13;;;11.90;53.40;;;;;;5092202;28;20691;-49
2021/01/21 08:05:41;;;;;;;9.60;1.23;;;12.00;53.80;;;;;;5092130;28;20666;-49
2021/01/21 08:08:08;;;;;;;2.20;1.00;;;12.00;53.90;;;;;;5092199;28;20647;-49
2021/01/21 08:10:36;;;;;;;2.77;1.00;;;12.10;54.00;;;;;;5091476;28;20651;-49
2021/01/21 08:13:03;;;;;;;1.83;1.30;;;12.20;54.20;;;;;;5092124;28;20713;-49
2021/01/21 08:15:30;;;;;;;3.40;1.43;;;12.30;54.30;;;;;;5091884;28;20794;-49
2021/01/21 08:17:57;;;;;;;6.60;1.17;;;12.40;54.10;;;;;;5091801;28;20627;-48
2021/01/21 08:20:25;;;;;;;3.63;0.80;;;12.40;54.40;;;;;;5091816;28;21208;-48
2021/01/21 08:22:54;;;;;;;2.73;1.03;;;12.50;54.10;;;;;;5091709;28;20666;-49
2021/01/21 08:25:20;;;;;;;1.33;1.23;;;12.60;54.20;;;;;;5092126;28;20628;-49
2021/01/21 08:27:48;;;;;;;1.40;0.80;;;12.60;55.80;;;;;;5091602;28;20663;-50
2021/01/21 08:30:17;;;;;;;0.67;0.67;;;12.40;57.10;;;;;;5092000;28;20667;-50
2021/01/21 08:32:44;;;;;;;1.10;1.00;;;12.20;59.80;;;;;;5091430;28;20648;-49
2021/01/21 08:35:13;;;;;;;1.50;1.23;;;12.10;61.30;;;;;;5091599;28;20687;-51
2021/01/21 08:37:40;;;;;;;2.00;1.10;;;12.00;62.00;;;;;;5091569;28;20644;-50
2021/01/21 08:40:08;;;;;;;0.83;0.50;;;12.00;63.70;;;;;;5089901;28;20683;-50
2021/01/21 08:42:35;;;;;;;1.27;0.90;;;12.00;63.50;;;;;;5091629;28;20628;-50
2021/01/21 08:45:03;;;;;;;1.43;0.90;;;12.00;63.70;;;;;;5091537;28;20686;-50
2021/01/21 08:47:40;;;;;;;2.20;0.70;;;12.10;64.00;;;;;;5091195;28;20624;-49
2021/01/21 08:50:08;;;;;;;0.73;0.73;;;12.20;63.60;;;;;;5092195;28;20666;-49
2021/01/21 08:52:36;;;;;;;0.93;0.87;;;12.20;64.10;;;;;;5090945;28;20616;-51
2021/01/21 08:55:04;;;;;;;1.20;1.10;;;12.20;63.50;;;;;;5090659;28;21145;-50
2021/01/21 08:57:32;;;;;;;1.27;0.70;;;12.30;64.10;;;;;;5091080;28;20628;-49
2021/01/21 09:00:12;;;;;;;0.90;0.90;;;12.30;64.20;;;;;;5091763;28;20705;-50
2021/01/21 09:02:42;;;;;;;1.53;0.90;;;12.40;63.90;;;;;;5089573;28;20647;-49
2021/01/21 09:05:09;;;;;;;3.47;1.27;;;12.40;65.10;;;;;;5090917;28;20648;-49
2021/01/21 09:07:36;;;;;;;1.40;1.00;;;12.50;65.30;;;;;;5090834;28;20632;-49
2021/01/21 09:10:10;;;;;;;5.13;1.00;;;12.50;65.50;;;;;;5090427;28;20640;-49
2021/01/21 09:12:38;;;;;;;1.27;1.17;;;12.50;64.80;;;;;;5091235;28;20685;-49
2021/01/21 09:15:06;;;;;;;1.30;1.20;;;12.50;65.20;;;;;;5090938;28;20695;-50
2021/01/21 09:17:33;;;;;;;5.63;1.33;;;12.60;65.70;;;;;;5091271;28;21029;-50
2021/01/21 09:20:00;;;;;;;2.03;1.10;;;12.60;65.70;;;;;;5090707;28;20624;-50
2021/01/21 09:22:37;;;;;;;1.97;1.03;;;12.70;65.80;;;;;;5091020;28;20671;-50
2021/01/21 09:25:05;;;;;;;2.07;1.03;;;12.70;66.60;;;;;;5090530;28;20680;-50
2021/01/21 09:27:33;;;;;;;1.07;0.83;;;12.70;67.00;;;;;;5090299;28;20654;-50
2021/01/21 09:30:01;;;;;;;1.67;0.93;;;12.70;67.30;;;;;;5090287;28;20648;-48
2021/01/21 09:32:28;;;;;;;2.97;1.40;;;12.60;68.50;;;;;;5090621;28;20664;-49
2021/01/21 09:34:57;;;;;;;1.93;1.20;;;12.60;69.30;;;;;;5090228;28;20703;-49
2021/01/21 09:37:24;;;;;;;1.97;1.23;;;12.60;70.20;;;;;;5090682;28;20658;-48
2021/01/21 09:39:51;;;;;;;1.30;0.70;;;12.60;71.10;;;;;;5090658;28;20632;-49
2021/01/21 09:42:18;;;;;;;1.70;1.20;;;12.50;71.70;;;;;;5090460;28;20659;-49
2021/01/21 09:44:45;;;;;;;0.60;0.60;;;12.50;72.30;;;;;;5090408;28;20683;-48
2021/01/21 09:47:12;;;;;;;4.83;1.20;;;12.50;72.50;;;;;;5090337;28;20949;-49
2021/01/21 09:49:41;;;;;;;2.13;1.10;;;12.50;72.70;;;;;;5090383;28;21175;-51
2021/01/21 09:52:08;;;;;;;1.57;1.13;;;12.50;73.50;;;;;;5090227;28;20639;-50
2021/01/21 09:54:35;;;;;;;1.20;0.90;;;12.50;74.70;;;;;;5089910;28;20692;-50
2021/01/21 09:57:02;;;;;;;1.43;1.03;;;12.40;75.50;;;;;;5088604;28;21290;-49
2021/01/21 09:59:29;;;;;;;1.30;1.20;;;12.40;77.00;;;;;;5090190;28;21007;-48
2021/01/21 10:01:56;;;;;;;2.13;0.97;;;12.30;78.00;;;;;;5088196;28;20657;-49
2021/01/21 10:04:23;;;;;;;0.93;0.90;;;12.30;79.40;;;;;;5090006;28;20656;-48
2021/01/21 10:06:50;;;;;;;1.20;1.10;;;12.30;80.10;;;;;;5089811;28;20635;-49
2021/01/21 10:09:17;;;;;;;1.47;0.93;;;12.30;81.40;;;;;;5089925;28;20659;-48
2021/01/21 10:11:44;;;;;;;1.60;1.50;;;12.40;81.70;;;;;;5089043;28;20917;-48
2021/01/21 10:14:11;;;;;;;1.47;1.37;;;12.40;82.30;;;;;;5069241;28;20697;-48
2021/01/21 10:16:38;;;;;;;2.43;0.80;;;12.40;83.00;;;;;;5069946;28;20628;-50
2021/01/21 10:19:05;;;;;;;0.90;0.80;;;12.30;83.70;;;;;;5069800;28;20661;-50
2021/01/21 10:21:32;;;;;;;1.40;1.03;;;12.30;85.00;;;;;;5069874;28;21028;-51
2021/01/21 10:23:59;;;;;;;1.10;0.93;;;12.30;85.40;;;;;;5068259;28;20690;-51
2021/01/21 10:26:26;;;;;;;1.33;1.10;;;12.20;86.90;;;;;;5069863;28;20675;-51
2021/01/21 10:28:53;;;;;;;2.60;1.47;;;12.20;88.70;;;;;;5069382;28;20668;-51
2021/01/21 10:31:24;;;;;;;2.00;1.00;;;12.20;90.00;;;;;;5070032;28;20648;-50
2021/01/21 10:33:52;;;;;;;1.33;0.80;;;12.00;92.20;;;;;;5093069;22;20712;-56
2021/01/21 10:36:19;;;;;;;2.93;1.10;;;11.80;93.30;;;;;;5069924;28;20621;-54
2021/01/21 10:38:47;;;;;;;2.07;0.90;;;11.50;94.20;;;;;;5069782;28;20665;-55
2021/01/21 10:41:14;;;;;;;2.33;0.63;;;11.20;94.80;;;;;;5073926;28;20637;-55
2021/01/21 10:43:44;;;;;;;1.53;0.47;;;10.90;95.40;;;;;;5091227;28;20652;-54
2021/01/21 10:46:17;;;;;;;1.03;0.60;;;10.80;95.80;;;;;;5094510;28;20926;-53
2021/01/21 10:48:44;;;;;;;1.67;0.60;;;10.70;96.20;;;;;;5095115;28;21170;-54
2021/01/21 10:51:11;;;;;;;1.10;0.60;;;10.60;96.50;;;;;;5093805;28;21153;-53
2021/01/21 10:53:38;;;;;;;1.50;1.20;;;10.50;96.60;;;;;;5095157;28;20667;-53
2021/01/21 10:56:07;;;;;;;1.40;0.80;;;10.60;97.00;;;;;;5094700;28;20768;-54
2021/01/21 10:58:36;;;;;;;1.43;0.90;;;10.60;97.00;;;;;;5094917;28;20980;-54
2021/01/21 11:01:06;;;;;;;1.33;1.17;;;10.70;97.10;;;;;;5093298;28;21024;-56
2021/01/21 11:03:34;;;;;;;2.53;0.87;;;10.70;96.80;;;;;;5094400;28;20702;-55
2021/01/21 11:06:01;;;;;;;2.50;0.83;;;10.70;96.70;;;;;;5094801;28;20624;-54
2021/01/21 11:08:30;;;;;;;1.50;0.97;;;10.70;96.70;;;;;;5095001;28;20624;-53
2021/01/21 11:10:57;;;;;;;1.53;0.60;;;10.70;96.70;;;;;;5092857;28;21256;-53
2021/01/21 11:13:28;;;;;;;0.90;0.70;;;10.60;96.70;;;;;;5094257;28;21214;-55
2021/01/21 11:15:55;;;;;;;1.30;0.73;;;10.70;96.90;;;;;;5095211;28;20636;-53
2021/01/21 11:18:23;;;;;;;2.30;0.73;;;10.60;96.90;;;;;;5095022;28;20628;-54
2021/01/21 11:20:51;;;;;;;2.07;1.00;;;10.60;97.20;;;;;;5094023;28;20707;-53
2021/01/21 11:23:19;;;;;;;2.10;0.83;;;10.80;97.00;;;;;;5092894;28;21213;-53
2021/01/21 11:25:46;;;;;;;1.97;0.97;;;10.80;96.90;;;;;;5092749;28;20636;-54
2021/01/21 11:28:20;;;;;;;3.97;1.07;;;10.90;96.90;;;;;;5094628;28;20593;-52
2021/01/21 11:30:48;;;;;;;1.10;0.90;;;11.00;96.80;;;;;;5092767;28;20640;-53
2021/01/21 11:33:15;;;;;;;1.77;0.70;;;11.00;96.50;;;;;;5092421;28;20659;-55
2021/01/21 11:35:42;;;;;;;0.53;0.40;;;11.00;96.60;;;;;;5094627;28;21215;-54
2021/01/21 11:38:08;;;;;;;0.60;0.40;;;10.90;96.70;;;;;;5093595;28;20659;-54
2021/01/21 11:40:36;;;;;;;1.43;0.57;;;10.90;97.00;;;;;;5092806;28;20646;-55
2021/01/21 11:43:02;;;;;;;1.20;1.10;;;10.90;97.20;;;;;;5093834;28;20709;-53
2021/01/21 11:45:30;;;;;;;1.03;0.93;;;10.90;97.50;;;;;;5093856;28;20671;-53
2021/01/21 11:47:57;;;;;;;3.07;0.90;;;11.00;97.50;;;;;;5092431;28;20632;-53
2021/01/21 11:50:25;;;;;;;0.67;0.60;;;11.00;97.40;;;;;;5094356;28;20673;-53
2021/01/21 11:52:52;;;;;;;0.73;0.70;;;11.10;97.30;;;;;;5093091;28;20677;-52
2021/01/21 11:55:18;;;;;;;1.10;0.70;;;11.00;96.60;;;;;;5093849;28;21160;-54
2021/01/21 11:57:46;;;;;;;0.70;0.50;;;10.90;95.40;;;;;;5093545;28;20628;-54
2021/01/21 12:00:14;;;;;;;1.70;0.60;;;10.80;94.60;;;;;;5092123;28;21241;-54
2021/01/21 12:02:41;;;;;;;1.67;0.73;;;10.80;94.40;;;;;;5092540;28;20665;-54
2021/01/21 12:05:10;;;;;;;0.90;0.50;;;10.70;94.00;;;;;;5091713;28;20719;-53
2021/01/21 12:07:37;;;;;;;1.87;1.00;;;10.70;94.00;;;;;;5092077;28;20639;-54
2021/01/21 12:10:06;;;;;;;7.20;0.77;;;10.70;93.60;;;;;;5093785;28;21182;-56
2021/01/21 12:12:33;;;;;;;1.07;0.70;;;10.60;93.80;;;;;;5093987;28;21021;-53
2021/01/21 12:15:03;;;;;;;0.73;0.30;;;10.50;93.20;;;;;;5093363;28;21009;-55
2021/01/21 12:17:30;;;;;;;0.93;0.40;;;10.50;93.20;;;;;;5093469;28;20673;-54
2021/01/21 12:19:58;;;;;;;1.10;0.80;;;10.50;93.30;;;;;;5094020;28;20640;-55
2021/01/21 12:22:27;;;;;;;0.77;0.53;;;10.40;93.40;;;;;;5093342;28;20704;-53
2021/01/21 12:24:54;;;;;;;1.03;0.87;;;10.40;93.30;;;;;;5091805;28;20657;-53
2021/01/21 12:27:21;;;;;;;0.67;0.50;;;10.50;93.00;;;;;;5092687;28;20636;-54
2021/01/21 12:29:48;;;;;;;1.03;0.57;;;10.50;92.70;;;;;;5092856;28;20635;-52
2021/01/21 12:32:15;;;;;;;0.80;0.60;;;10.50;92.10;;;;;;5093445;28;20698;-53
2021/01/21 12:34:42;;;;;;;0.83;0.60;;;10.50;91.10;;;;;;5092274;28;21268;-53
2021/01/21 12:37:09;;;;;;;0.80;0.50;;;10.50;90.90;;;;;;5093065;28;20652;-53
2021/01/21 12:39:37;;;;;;;0.87;0.40;;;10.40;90.90;;;;;;5092617;28;20632;-54
2021/01/21 12:42:04;;;;;;;1.03;0.80;;;10.40;91.30;;;;;;5092983;28;20628;-54
2021/01/21 12:44:32;;;;;;;3.13;0.60;;;10.40;91.30;;;;;;5092568;28;21024;-53
2021/01/21 12:46:59;;;;;;;12.97;1.70;;;10.50;91.80;;;;;;5090738;28;20629;-55
2021/01/21 12:49:26;;;;;;;2.37;0.60;;;10.50;92.00;;;;;;5072694;28;20976;-52
2021/01/21 12:51:53;;;;;;;1.70;0.67;;;10.60;92.00;;;;;;5072361;28;20645;-54
2021/01/21 12:54:20;;;;;;;10.13;3.77;;;10.60;91.90;;;;;;5072140;28;20656;-53